Time;durP1;ratioP1;P1;durP2;ratioP2;P2;SDS_P1;SDS_P2;PMS_P1;PMS_P2;Temp;Humidity;BMP_temperature;BMP_pressure;BME280_temperature;BME280_humidity;BME280_pressure;Samples;Min_cycle;Max_cycle;Signal;HPM_P1;HPM_P2
2021/03/03 00:02:24;;;;;;;39.20;24.97;;;;;6.20;102377.00;;;;10443306;28;20194;-75
2021/03/03 00:07:25;;;;;;;40.73;24.23;;;;;6.20;102363.00;;;;10434118;28;20213;-75
2021/03/03 00:12:27;;;;;;;40.30;24.37;;;;;6.20;102383.00;;;;10468295;28;20243;-75
2021/03/03 00:17:28;;;;;;;45.03;24.63;;;;;6.10;102374.00;;;;10485273;28;20201;-75
2021/03/03 00:22:30;;;;;;;42.27;25.00;;;;;6.00;102383.00;;;;10438981;28;20214;-74
2021/03/03 00:27:32;;;;;;;38.60;24.63;;;;;5.90;102389.00;;;;10429864;28;20251;-74
2021/03/03 00:32:47;;;;;;;38.93;25.30;;;;;5.90;102383.00;;;;10484117;28;20189;-74
2021/03/03 00:37:49;;;;;;;41.60;24.73;;;;;5.90;102392.00;;;;10475259;28;20301;-75
2021/03/03 00:42:51;;;;;;;41.17;23.93;;;;;6.00;102391.00;;;;10425330;28;20210;-74
2021/03/03 00:47:52;;;;;;;43.57;25.17;;;;;5.90;102395.00;;;;10409311;28;20194;-74
2021/03/03 00:52:55;;;;;;;42.43;25.20;;;;;5.80;102388.00;;;;10441400;28;20194;-75
2021/03/03 00:58:01;;;;;;;40.97;24.33;;;;;5.70;102394.00;;;;10424776;28;20218;-76
2021/03/03 01:03:19;;;;;;;44.33;24.77;;;;;5.60;102394.00;;;;10423460;28;20285;-74
2021/03/03 01:08:25;;;;;;;39.40;22.57;;;;;5.50;102395.00;;;;10438273;28;20199;-74
2021/03/03 01:13:27;;;;;;;38.87;24.53;;;;;5.50;102405.00;;;;10465890;28;20189;-74
2021/03/03 01:18:30;;;;;;;41.10;24.10;;;;;5.50;102391.00;;;;10449314;28;20198;-74
2021/03/03 01:23:32;;;;;;;47.17;24.33;;;;;5.50;102397.00;;;;10465617;28;20405;-74
2021/03/03 01:28:33;;;;;;;46.47;22.73;;;;;5.40;102387.00;;;;10449107;28;20228;-74
2021/03/03 01:33:35;;;;;;;43.50;22.87;;;;;5.50;102377.00;;;;10448216;28;20192;-74
2021/03/03 01:38:36;;;;;;;41.70;23.30;;;;;5.50;102374.00;;;;10465232;28;20201;-74
2021/03/03 01:43:38;;;;;;;38.70;22.87;;;;;5.70;102361.00;;;;10436489;28;20199;-74
2021/03/03 01:48:39;;;;;;;47.90;23.03;;;;;5.70;102362.00;;;;10457228;28;20649;-74
2021/03/03 01:53:40;;;;;;;38.47;22.47;;;;;5.80;102367.00;;;;10423258;28;20197;-74
2021/03/03 01:58:42;;;;;;;36.67;22.70;;;;;5.90;102354.00;;;;10474074;28;20769;-74
2021/03/03 02:03:51;;;;;;;42.63;23.27;;;;;6.00;102353.00;;;;10507078;28;20189;-74
2021/03/03 02:09:09;;;;;;;39.47;23.03;;;;;6.10;102357.00;;;;10471397;28;20205;-73
2021/03/03 02:14:16;;;;;;;36.83;21.77;;;;;6.20;102340.00;;;;10427999;28;20296;-74
2021/03/03 02:19:28;;;;;;;43.33;22.13;;;;;6.10;102337.00;;;;10406702;28;20194;-74
2021/03/03 02:24:39;;;;;;;37.93;22.27;;;;;6.00;102338.00;;;;10422070;28;20224;-74
2021/03/03 02:29:41;;;;;;;37.57;22.40;;;;;5.80;102345.00;;;;10427104;28;20190;-73
2021/03/03 02:34:43;;;;;;;40.87;21.77;;;;;5.70;102336.00;;;;10480149;28;20202;-74
2021/03/03 02:39:45;;;;;;;37.33;20.97;;;;;5.60;102330.00;;;;10467996;28;20607;-73
2021/03/03 02:44:48;;;;;;;36.70;22.73;;;;;5.60;102330.00;;;;10462141;28;20196;-74
2021/03/03 02:49:50;;;;;;;42.63;23.80;;;;;5.70;102322.00;;;;10479615;28;20588;-74
2021/03/03 02:54:51;;;;;;;43.63;23.63;;;;;6.00;102327.00;;;;10463314;28;20282;-74
2021/03/03 02:59:55;;;;;;;43.10;23.93;;;;;6.20;102326.00;;;;10446083;28;20684;-74
2021/03/03 03:04:58;;;;;;;45.87;23.37;;;;;6.30;102324.00;;;;10429262;28;20235;-74
2021/03/03 03:10:03;;;;;;;41.27;23.13;;;;;6.30;102323.00;;;;10449703;28;20194;-74
2021/03/03 03:15:05;;;;;;;39.73;24.70;;;;;6.40;102313.00;;;;10426236;28;20210;-74
2021/03/03 03:20:09;;;;;;;44.93;25.37;;;;;6.40;102310.00;;;;10455736;28;20222;-74
2021/03/03 03:25:12;;;;;;;43.60;24.87;;;;;6.30;102309.00;;;;10458694;28;20628;-74
2021/03/03 03:30:16;;;;;;;41.73;24.87;;;;;6.30;102312.00;;;;10470376;28;20239;-74
2021/03/03 03:35:17;;;;;;;40.97;23.10;;;;;6.30;102311.00;;;;10450031;28;20297;-74
2021/03/03 03:40:20;;;;;;;43.97;25.33;;;;;6.30;102322.00;;;;10457634;28;20225;-74
2021/03/03 03:45:28;;;;;;;42.40;24.90;;;;;6.40;102314.00;;;;10453333;28;20240;-74
2021/03/03 03:50:30;;;;;;;42.17;24.87;;;;;6.40;102314.00;;;;10468854;28;20691;-74
2021/03/03 03:55:35;;;;;;;44.53;24.77;;;;;6.30;102313.00;;;;10485073;28;20219;-74
2021/03/03 04:00:37;;;;;;;45.47;23.80;;;;;6.30;102309.00;;;;10441395;28;20248;-74
2021/03/03 04:05:38;;;;;;;42.87;24.27;;;;;6.20;102325.00;;;;10428929;28;20205;-74
2021/03/03 04:10:39;;;;;;;44.77;24.70;;;;;6.10;102325.00;;;;10442613;28;20201;-74
2021/03/03 04:15:41;;;;;;;44.43;24.63;;;;;6.00;102330.00;;;;10485218;28;20206;-74
2021/03/03 04:20:43;;;;;;;40.73;26.30;;;;;6.00;102334.00;;;;10485327;28;20239;-74
2021/03/03 04:25:46;;;;;;;40.83;24.20;;;;;6.10;102337.00;;;;10484547;28;20186;-74
2021/03/03 04:30:47;;;;;;;47.03;26.40;;;;;6.10;102339.00;;;;10442427;28;20186;-74
2021/03/03 04:35:49;;;;;;;50.43;28.20;;;;;6.30;102345.00;;;;10438215;28;20205;-74
2021/03/03 04:40:50;;;;;;;45.40;28.17;;;;;6.50;102350.00;;;;10442541;28;20198;-74
2021/03/03 04:45:52;;;;;;;45.00;27.23;;;;;6.80;102360.00;;;;10442889;28;20197;-74
2021/03/03 04:50:53;;;;;;;44.10;26.13;;;;;7.00;102339.00;;;;10450484;28;20204;-74
2021/03/03 04:55:55;;;;;;;48.40;26.53;;;;;7.10;102352.00;;;;10482460;28;20263;-74
2021/03/03 05:00:56;;;;;;;47.90;25.40;;;;;7.20;102358.00;;;;10467848;28;20254;-74
2021/03/03 05:06:08;;;;;;;46.50;25.70;;;;;7.30;102357.00;;;;10426293;28;20220;-74
2021/03/03 05:11:09;;;;;;;40.67;25.80;;;;;7.50;102354.00;;;;10463137;28;20190;-74
2021/03/03 05:16:11;;;;;;;40.57;24.40;;;;;7.50;102347.00;;;;10426489;28;20241;-74
2021/03/03 05:21:13;;;;;;;45.80;25.67;;;;;7.60;102342.00;;;;10466579;28;20209;-74
2021/03/03 05:26:15;;;;;;;49.80;26.70;;;;;7.60;102340.00;;;;10418120;28;20285;-74
2021/03/03 05:31:16;;;;;;;46.80;26.23;;;;;7.50;102344.00;;;;10441150;28;20194;-74
2021/03/03 05:36:32;;;;;;;49.63;27.47;;;;;7.40;102336.00;;;;10426496;28;20534;-74
2021/03/03 05:41:34;;;;;;;47.30;27.33;;;;;7.20;102343.00;;;;10445262;28;20256;-74
2021/03/03 05:46:39;;;;;;;40.80;27.23;;;;;7.10;102337.00;;;;10474549;28;20725;-75
2021/03/03 05:51:42;;;;;;;44.63;26.33;;;;;7.10;102333.00;;;;10464275;28;20193;-74
2021/03/03 05:56:45;;;;;;;44.33;26.30;;;;;7.10;102332.00;;;;10463800;28;20227;-74
2021/03/03 06:02:08;;;;;;;57.07;26.77;;;;;7.00;102336.00;;;;10468632;28;20242;-74
2021/03/03 06:07:10;;;;;;;46.43;28.03;;;;;6.90;102332.00;;;;10444675;28;20194;-74
2021/03/03 06:12:12;;;;;;;47.63;25.77;;;;;6.80;102335.00;;;;10438608;28;20277;-74
2021/03/03 06:17:14;;;;;;;45.70;27.80;;;;;6.70;102338.00;;;;10476671;28;20229;-74
2021/03/03 06:22:26;;;;;;;46.90;26.67;;;;;6.60;102334.00;;;;10446653;28;20217;-75
2021/03/03 06:27:38;;;;;;;60.87;28.23;;;;;6.40;102342.00;;;;10438716;28;20194;-74
2021/03/03 06:33:08;;;;;;;47.03;27.60;;;;;6.40;102349.00;;;;10470642;28;20197;-75
2021/03/03 06:38:13;;;;;;;47.77;28.07;;;;;6.40;102348.00;;;;10479784;28;20684;-74
2021/03/03 06:43:32;;;;;;;47.07;27.90;;;;;6.60;102348.00;;;;10462303;28;20201;-74
2021/03/03 06:48:41;;;;;;;47.93;27.37;;;;;6.80;102360.00;;;;10462657;28;20205;-75
2021/03/03 06:53:43;;;;;;;49.37;26.50;;;;;7.00;102344.00;;;;10479767;28;20227;-74
2021/03/03 06:58:44;;;;;;;50.80;28.83;;;;;7.20;102347.00;;;;10435630;28;20229;-74
2021/03/03 07:03:45;;;;;;;46.57;27.40;;;;;7.30;102362.00;;;;10452383;28;20197;-74
2021/03/03 07:08:57;;;;;;;47.27;26.43;;;;;7.60;102370.00;;;;10441243;28;20189;-75
2021/03/03 07:14:11;;;;;;;48.93;27.00;;;;;7.70;102371.00;;;;10453347;28;20641;-75
2021/03/03 07:19:20;;;;;;;45.40;25.90;;;;;7.80;102373.00;;;;10468162;28;20281;-74
2021/03/03 07:24:22;;;;;;;47.67;27.73;;;;;7.90;102368.00;;;;10437006;28;20247;-74
2021/03/03 07:29:25;;;;;;;42.87;26.87;;;;;8.10;102374.00;;;;10465300;28;20217;-74
2021/03/03 07:34:27;;;;;;;44.40;26.93;;;;;8.40;102377.00;;;;10452443;28;20213;-75
2021/03/03 07:39:33;;;;;;;50.90;26.63;;;;;8.70;102371.00;;;;10470868;28;20613;-75
2021/03/03 07:44:35;;;;;;;46.03;24.27;;;;;9.00;102382.00;;;;10487933;28;20590;-76
2021/03/03 07:49:37;;;;;;;42.73;24.57;;;;;9.30;102383.00;;;;10444431;28;20206;-75
2021/03/03 07:54:39;;;;;;;45.73;24.60;;;;;9.60;102375.00;;;;10444731;28;20218;-75
2021/03/03 07:59:42;;;;;;;41.27;24.37;;;;;9.90;102359.00;;;;10425876;28;20218;-76
2021/03/03 08:04:44;;;;;;;38.97;25.33;;;;;10.10;102357.00;;;;10440611;28;20189;-75
2021/03/03 08:10:19;;;;;;;43.10;23.23;;;;;10.50;102342.00;;;;10460157;28;20205;-75
2021/03/03 08:15:38;;;;;;;39.20;23.10;;;;;10.90;102352.00;;;;10438172;28;20271;-75
2021/03/03 08:20:51;;;;;;;43.77;22.93;;;;;11.30;102350.00;;;;10463133;28;20198;-76
2021/03/03 08:25:54;;;;;;;39.10;22.80;;;;;11.60;102346.00;;;;10426109;28;20546;-76
2021/03/03 08:31:04;;;;;;;36.20;22.50;;;;;11.90;102351.00;;;;10410058;28;20194;-76
2021/03/03 08:36:09;;;;;;;36.50;23.00;;;;;12.30;102349.00;;;;10457127;28;20198;-76
2021/03/03 08:41:16;;;;;;;37.03;23.10;;;;;12.70;102345.00;;;;10466854;28;20189;-76
2021/03/03 08:46:17;;;;;;;31.07;21.30;;;;;13.10;102348.00;;;;10483741;28;20223;-76
2021/03/03 08:51:39;;;;;;;45.17;22.40;;;;;13.50;102333.00;;;;10484174;28;20182;-76
2021/03/03 08:56:59;;;;;;;38.00;23.80;;;;;13.90;102345.00;;;;10483079;28;20205;-74
2021/03/03 09:02:08;;;;;;;43.37;23.80;;;;;14.30;102333.00;;;;10483698;28;20239;-74
2021/03/03 09:07:29;;;;;;;40.67;25.20;;;;;14.60;102337.00;;;;10448962;28;20225;-75
2021/03/03 09:12:39;;;;;;;43.47;24.80;;;;;15.00;102330.00;;;;10467009;28;20563;-75
2021/03/03 09:17:41;;;;;;;33.47;23.57;;;;;15.30;102331.00;;;;10466391;28;20292;-74
2021/03/03 09:22:44;;;;;;;42.00;24.10;;;;;15.60;102322.00;;;;10431626;28;20194;-74
2021/03/03 09:28:12;;;;;;;38.53;25.03;;;;;16.00;102324.00;;;;10471451;28;20182;-74
2021/03/03 09:33:13;;;;;;;45.47;25.47;;;;;16.30;102321.00;;;;10445289;28;20193;-74
2021/03/03 09:38:15;;;;;;;39.95;23.88;;;;;16.70;102303.00;;;;10410905;28;20305;-74
2021/03/03 09:43:17;;;;;;;38.95;21.30;;;;;17.00;102304.00;;;;10438963;28;20197;-74
2021/03/03 09:48:25;;;;;;;39.78;22.10;;;;;17.40;102311.00;;;;10439069;28;20194;-74
2021/03/03 09:53:27;;;;;;;40.97;19.83;;;;;17.70;102309.00;;;;10430903;28;20201;-74
2021/03/03 09:58:29;;;;;;;30.77;19.48;;;;;17.90;102295.00;;;;10486320;28;20715;-74
2021/03/03 10:03:30;;;;;;;33.72;19.75;;;;;18.10;102299.00;;;;10441512;28;20197;-74
2021/03/03 10:08:32;;;;;;;32.13;19.50;;;;;18.10;102299.00;;;;10446306;28;20553;-75
2021/03/03 10:13:40;;;;;;;33.78;20.80;;;;;18.10;102296.00;;;;10444938;28;20197;-75
2021/03/03 10:19:02;;;;;;;33.70;19.92;;;;;18.00;102297.00;;;;10442927;28;20205;-75
2021/03/03 10:24:16;;;;;;;39.80;22.00;;;;;17.70;102298.00;;;;10453601;28;20206;-75
2021/03/03 10:29:40;;;;;;;36.10;21.55;;;;;18.20;102294.00;;;;10450109;28;20224;-75
2021/03/03 10:34:43;;;;;;;33.05;22.48;;;;;18.60;102304.00;;;;10437493;28;20225;-75
2021/03/03 10:39:44;;;;;;;43.83;22.00;;;;;19.00;102303.00;;;;10447471;28;20229;-74
2021/03/03 10:44:49;;;;;;;35.13;22.00;;;;;19.20;102304.00;;;;10445862;28;20201;-74
2021/03/03 10:50:04;;;;;;;33.15;21.83;;;;;19.30;102293.00;;;;10438644;28;20763;-74
2021/03/03 10:55:24;;;;;;;43.60;22.48;;;;;19.50;102294.00;;;;10463442;28;20672;-74
2021/03/03 11:00:25;;;;;;;41.80;22.25;;;;;19.60;102285.00;;;;10437581;28;20336;-74
2021/03/03 11:05:27;;;;;;;48.10;22.30;;;;;19.90;102277.00;;;;10437813;28;20205;-75
2021/03/03 11:10:39;;;;;;;39.20;22.58;;;;;20.20;102288.00;;;;10440946;28;20207;-75
2021/03/03 11:15:41;;;;;;;37.88;23.30;;;;;20.30;102281.00;;;;10474748;28;20204;-75
2021/03/03 11:20:43;;;;;;;43.40;25.05;;;;;20.30;102287.00;;;;10429236;28;20732;-75
2021/03/03 11:25:44;;;;;;;41.42;24.02;;;;;20.20;102285.00;;;;10445077;28;20566;-75
2021/03/03 11:30:50;;;;;;;36.22;23.30;;;;;20.40;102275.00;;;;10461709;28;20229;-75
2021/03/03 11:35:51;;;;;;;39.28;22.25;;;;;20.40;102266.00;;;;10444308;28;20296;-75
2021/03/03 11:41:02;;;;;;;36.50;21.08;;;;;20.50;102259.00;;;;10444690;28;20205;-76
2021/03/03 11:46:06;;;;;;;29.35;18.48;;;;;20.60;102257.00;;;;10461764;28;20664;-76
2021/03/03 11:51:08;;;;;;;37.17;19.00;;;;;20.60;102248.00;;;;10468647;28;20268;-76
2021/03/03 11:56:09;;;;;;;36.83;18.42;;;;;20.60;102248.00;;;;10464564;28;20248;-76
2021/03/03 12:01:10;;;;;;;33.35;17.00;;;;;20.80;102245.00;;;;10459938;28;20241;-75
2021/03/03 12:06:12;;;;;;;33.55;15.82;;;;;20.60;102237.00;;;;10446542;28;20727;-75
2021/03/03 12:11:26;;;;;;;29.08;17.05;;;;;20.60;102232.00;;;;10481429;28;20649;-76
2021/03/03 12:16:27;;;;;;;24.45;14.55;;;;;20.70;102222.00;;;;10483839;28;20251;-75
2021/03/03 12:21:29;;;;;;;28.45;15.00;;;;;20.90;102221.00;;;;10467917;28;20277;-75
2021/03/03 12:26:30;;;;;;;31.00;15.75;;;;;21.00;102220.00;;;;10446959;28;20229;-75
2021/03/03 12:31:32;;;;;;;29.05;15.73;;;;;21.10;102220.00;;;;10485365;28;20189;-75
2021/03/03 12:36:34;;;;;;;32.70;15.77;;;;;21.10;102211.00;;;;10483268;28;20219;-75
2021/03/03 12:41:50;;;;;;;26.95;15.38;;;;;21.30;102210.00;;;;10459749;28;20548;-75
2021/03/03 12:46:52;;;;;;;28.33;15.15;;;;;21.30;102198.00;;;;10441726;28;20205;-75
2021/03/03 12:51:54;;;;;;;29.30;14.60;;;;;21.30;102203.00;;;;10441900;28;20204;-75
2021/03/03 12:56:55;;;;;;;26.10;14.68;;;;;21.40;102191.00;;;;10424653;28;20214;-75
2021/03/03 13:01:56;;;;;;;31.90;13.75;;;;;21.50;102188.00;;;;10441794;28;20252;-75
2021/03/03 13:07:00;;;;;;;25.10;12.75;;;;;21.60;102184.00;;;;10488759;28;20189;-75
2021/03/03 13:12:13;;;;;;;26.83;11.15;;;;;21.70;102177.00;;;;10434559;28;20193;-75
2021/03/03 13:17:15;;;;;;;24.65;10.38;;;;;21.80;102164.00;;;;10452206;28;20723;-75
2021/03/03 13:22:16;;;;;;;19.52;8.82;;;;;21.80;102164.00;;;;10455530;28;20742;-75
2021/03/03 13:27:18;;;;;;;26.67;9.77;;;;;21.80;102143.00;;;;10441636;28;20224;-75
2021/03/03 13:32:20;;;;;;;20.13;8.57;;;;;21.90;102145.00;;;;10444590;28;20189;-75
2021/03/03 13:37:21;;;;;;;26.83;10.07;;;;;21.80;102142.00;;;;10466867;28;20201;-75
2021/03/03 13:42:35;;;;;;;21.40;8.32;;;;;21.30;102138.00;;;;10446801;28;20198;-75
2021/03/03 13:47:37;;;;;;;24.10;9.18;;;;;21.50;102129.00;;;;10467140;28;20660;-75
2021/03/03 13:52:39;;;;;;;25.50;9.50;;;;;21.70;102125.00;;;;10465141;28;20217;-75
2021/03/03 13:57:41;;;;;;;22.10;10.38;;;;;21.80;102117.00;;;;10452557;28;20238;-76
2021/03/03 14:02:42;;;;;;;23.38;10.73;;;;;21.70;102121.00;;;;10473027;28;20240;-75
2021/03/03 14:07:43;;;;;;;26.02;9.57;;;;;21.90;102110.00;;;;10459777;28;20193;-75
2021/03/03 14:12:59;;;;;;;23.05;10.30;;;;;22.60;102118.00;;;;10470589;28;20182;-75
2021/03/03 14:18:03;;;;;;;22.23;11.43;;;;;23.20;102125.00;;;;10452231;28;20699;-75
2021/03/03 14:23:05;;;;;;;26.75;10.82;;;;;23.20;102115.00;;;;10470231;28;20251;-75
2021/03/03 14:28:06;;;;;;;23.42;9.70;;;;;22.60;102103.00;;;;10451146;28;20235;-74
2021/03/03 14:33:08;;;;;;;21.95;8.52;;;;;22.50;102108.00;;;;10474021;28;20697;-74
2021/03/03 14:38:17;;;;;;;26.80;8.95;;;;;22.40;102104.00;;;;10467711;28;20213;-73
2021/03/03 14:43:25;;;;;;;22.23;9.68;;;;;22.00;102109.00;;;;10477663;28;20189;-74
2021/03/03 14:48:26;;;;;;;28.02;10.35;;;;;21.50;102103.00;;;;10456780;28;20232;-74
2021/03/03 14:53:27;;;;;;;24.08;9.98;;;;;21.90;102095.00;;;;10457781;28;20698;-74
2021/03/03 14:58:28;;;;;;;27.00;10.07;;;;;21.70;102098.00;;;;10477596;28;20208;-74
2021/03/03 15:03:30;;;;;;;25.98;10.73;;;;;20.90;102098.00;;;;10451344;28;20189;-74
2021/03/03 15:08:32;;;;;;;30.98;11.65;;;;;21.10;102084.00;;;;10462946;28;20197;-74
2021/03/03 15:13:50;;;;;;;29.10;12.63;;;;;21.80;102069.00;;;;10428748;28;20208;-74
2021/03/03 15:18:51;;;;;;;23.50;11.27;;;;;22.60;102072.00;;;;10450358;28;20250;-74
2021/03/03 15:23:52;;;;;;;22.48;13.18;;;;;21.50;102059.00;;;;10472518;28;20335;-74
2021/03/03 15:28:54;;;;;;;27.73;12.02;;;;;21.60;102047.00;;;;10488081;28;20209;-75
2021/03/03 15:33:55;;;;;;;31.98;12.80;;;;;21.60;102042.00;;;;10457723;28;20209;-75
2021/03/03 15:38:57;;;;;;;23.83;12.80;;;;;20.70;102050.00;;;;10453914;28;20198;-75
2021/03/03 15:43:59;;;;;;;31.65;11.27;;;;;20.00;102044.00;;;;10459893;28;20185;-74
2021/03/03 15:49:02;;;;;;;24.55;10.20;;;;;19.40;102047.00;;;;10467611;28;20733;-74
2021/03/03 15:54:04;;;;;;;25.27;11.13;;;;;19.20;102045.00;;;;10479506;28;20318;-74
2021/03/03 15:59:06;;;;;;;32.50;10.20;;;;;18.70;102038.00;;;;10426548;28;20228;-74
2021/03/03 16:04:07;;;;;;;31.85;11.00;;;;;18.30;102044.00;;;;10465688;28;20201;-74
2021/03/03 16:09:09;;;;;;;28.98;10.82;;;;;17.90;102043.00;;;;10494753;28;20293;-75
2021/03/03 16:14:13;;;;;;;31.95;11.32;;;;;17.50;102039.00;;;;10478193;28;20667;-74
2021/03/03 16:19:17;;;;;;;27.63;11.68;;;;;17.20;102032.00;;;;10450551;28;20243;-75
2021/03/03 16:24:19;;;;;;;26.65;13.52;;;;;16.90;102032.00;;;;10476072;28;20186;-74
2021/03/03 16:29:23;;;;;;;32.03;16.52;;;;;16.60;102039.00;;;;10437770;28;20190;-74
2021/03/03 16:34:24;;;;;;;37.60;19.10;;;;;16.40;102041.00;;;;10480434;28;20201;-75
2021/03/03 16:39:25;;;;;;;29.98;17.95;;;;;16.10;102043.00;;;;10466081;28;20249;-74
2021/03/03 16:44:32;;;;;;;29.43;15.50;;;;;15.80;102047.00;;;;10462532;28;20916;-75
2021/03/03 16:49:34;;;;;;;27.83;13.60;;;;;15.50;102044.00;;;;10471923;28;20209;-75
2021/03/03 16:54:36;;;;;;;28.17;13.87;;;;;15.20;102049.00;;;;10442619;28;20229;-75
2021/03/03 16:59:38;;;;;;;26.67;14.07;;;;;15.00;102043.00;;;;10482642;28;20200;-75
2021/03/03 17:04:39;;;;;;;29.43;14.30;;;;;14.80;102044.00;;;;10482007;28;20217;-75
2021/03/03 17:09:41;;;;;;;29.03;15.20;;;;;14.70;102053.00;;;;10432415;28;20232;-74
2021/03/03 17:15:01;;;;;;;27.40;14.70;;;;;14.50;102041.00;;;;10453659;28;20213;-75
2021/03/03 17:20:03;;;;;;;30.17;15.77;;;;;14.30;102043.00;;;;10440394;28;20199;-75
2021/03/03 17:25:05;;;;;;;32.10;15.47;;;;;14.10;102045.00;;;;10441081;28;20228;-75
2021/03/03 17:30:08;;;;;;;35.20;16.43;;;;;13.90;102051.00;;;;10446483;28;20193;-74
2021/03/03 17:35:10;;;;;;;35.60;16.63;;;;;13.60;102051.00;;;;10463952;28;20206;-74
2021/03/03 17:40:11;;;;;;;29.53;15.93;;;;;13.50;102048.00;;;;10439609;28;20244;-74
2021/03/03 17:45:24;;;;;;;35.60;17.40;;;;;13.30;102047.00;;;;10433127;28;20190;-74
2021/03/03 17:50:25;;;;;;;34.70;17.27;;;;;13.20;102040.00;;;;10439120;28;20182;-74
2021/03/03 17:55:27;;;;;;;32.17;18.73;;;;;13.10;102026.00;;;;10437964;28;20234;-74
2021/03/03 18:00:28;;;;;;;33.97;17.73;;;;;13.10;102030.00;;;;10477140;28;20235;-74
2021/03/03 18:05:30;;;;;;;36.87;24.17;;;;;13.00;102040.00;;;;10460598;28;20181;-74
2021/03/03 18:10:31;;;;;;;38.73;20.20;;;;;12.80;102043.00;;;;10432554;28;20201;-74
2021/03/03 18:15:46;;;;;;;42.30;22.57;;;;;12.70;102051.00;;;;10454375;28;20240;-74
2021/03/03 18:20:50;;;;;;;40.60;21.00;;;;;12.50;102047.00;;;;10479536;28;20205;-75
2021/03/03 18:25:52;;;;;;;41.77;22.87;;;;;12.50;102044.00;;;;10455116;28;20245;-75
2021/03/03 18:30:54;;;;;;;59.73;35.87;;;;;12.30;102051.00;;;;10444220;28;20648;-75
2021/03/03 18:35:55;;;;;;;65.83;43.30;;;;;12.10;102056.00;;;;10441423;28;20214;-75
2021/03/03 18:40:56;;;;;;;75.00;46.67;;;;;11.80;102048.00;;;;10441371;28;20255;-75
2021/03/03 18:46:10;;;;;;;78.17;49.37;;;;;11.70;102053.00;;;;10420385;28;20210;-75
2021/03/03 18:51:11;;;;;;;73.10;48.83;;;;;11.50;102050.00;;;;10444063;28;20205;-75
2021/03/03 18:56:13;;;;;;;73.73;50.77;;;;;11.40;102047.00;;;;10420028;28;20214;-74
2021/03/03 19:01:14;;;;;;;79.70;52.10;;;;;11.40;102052.00;;;;10460381;28;20905;-75
2021/03/03 19:06:19;;;;;;;80.03;51.20;;;;;11.40;102049.00;;;;10430821;28;20304;-75
2021/03/03 19:11:20;;;;;;;76.67;51.13;;;;;11.30;102043.00;;;;10440653;28;20331;-74
2021/03/03 19:16:34;;;;;;;75.77;52.10;;;;;11.00;102048.00;;;;10431677;28;20864;-75
2021/03/03 19:21:36;;;;;;;80.53;51.10;;;;;10.80;102062.00;;;;10448630;28;20222;-76
2021/03/03 19:26:37;;;;;;;73.27;51.00;;;;;10.70;102055.00;;;;10415739;28;20190;-75
2021/03/03 19:31:38;;;;;;;80.73;55.67;;;;;10.60;102050.00;;;;10455993;28;20303;-76
2021/03/03 19:36:40;;;;;;;80.57;51.70;;;;;10.60;102066.00;;;;10428159;28;20259;-75
2021/03/03 19:41:42;;;;;;;70.67;46.93;;;;;10.50;102058.00;;;;10463957;28;20255;-74
2021/03/03 19:46:57;;;;;;;73.03;50.07;;;;;10.40;102066.00;;;;10462409;28;20213;-75
2021/03/03 19:51:58;;;;;;;80.50;55.30;;;;;10.20;102058.00;;;;10424128;28;20212;-75
2021/03/03 19:57:02;;;;;;;82.50;52.10;;;;;10.10;102057.00;;;;10501648;28;20213;-75
2021/03/03 20:02:04;;;;;;;103.20;67.30;;;;;10.10;102060.00;;;;10430332;28;20221;-75
2021/03/03 20:07:06;;;;;;;88.93;58.00;;;;;10.10;102051.00;;;;10440434;28;20197;-75
2021/03/03 20:12:08;;;;;;;91.33;56.40;;;;;10.00;102050.00;;;;10484834;28;20244;-76
2021/03/03 20:17:21;;;;;;;84.80;53.60;;;;;10.00;102040.00;;;;10454498;28;20220;-76
2021/03/03 20:22:22;;;;;;;93.87;56.33;;;;;9.90;102040.00;;;;10437539;28;20763;-75
2021/03/03 20:27:24;;;;;;;90.73;55.70;;;;;9.80;102035.00;;;;10442571;28;20298;-75
2021/03/03 20:32:25;;;;;;;83.20;53.40;;;;;9.80;102040.00;;;;10456375;28;20206;-76
2021/03/03 20:37:27;;;;;;;89.57;56.03;;;;;9.70;102043.00;;;;10422847;28;20256;-75
2021/03/03 20:42:28;;;;;;;94.40;55.70;;;;;9.70;102038.00;;;;10408843;28;20254;-75
2021/03/03 20:47:40;;;;;;;91.40;59.00;;;;;9.70;102052.00;;;;10438461;28;20201;-75
2021/03/03 20:52:46;;;;;;;92.30;55.10;;;;;9.70;102055.00;;;;10468284;28;20244;-75
2021/03/03 20:57:47;;;;;;;94.80;56.80;;;;;9.60;102053.00;;;;10450617;28;20224;-75
2021/03/03 21:02:49;;;;;;;92.87;56.30;;;;;9.60;102052.00;;;;10438388;28;20197;-75
2021/03/03 21:07:52;;;;;;;96.73;57.10;;;;;9.60;102044.00;;;;10482092;28;20653;-75
2021/03/03 21:12:54;;;;;;;92.40;57.00;;;;;9.60;102035.00;;;;10453161;28;20282;-75
2021/03/03 21:18:03;;;;;;;92.47;57.37;;;;;9.50;102037.00;;;;10436220;28;20680;-75
2021/03/03 21:23:05;;;;;;;95.27;56.07;;;;;9.50;102041.00;;;;10481162;28;20205;-75
2021/03/03 21:28:06;;;;;;;104.87;57.93;;;;;9.40;102042.00;;;;10481524;28;20243;-75
2021/03/03 21:33:08;;;;;;;95.73;57.83;;;;;9.30;102042.00;;;;10453066;28;20217;-75
2021/03/03 21:38:10;;;;;;;108.30;63.33;;;;;9.30;102026.00;;;;10479792;28;20684;-75
2021/03/03 21:43:28;;;;;;;94.00;58.20;;;;;9.30;102024.00;;;;10435825;28;20201;-75
2021/03/03 21:48:30;;;;;;;103.90;62.97;;;;;9.30;102024.00;;;;10422652;28;20248;-75
2021/03/03 21:53:32;;;;;;;98.60;58.07;;;;;9.20;102018.00;;;;10445169;28;20198;-77
2021/03/03 21:58:33;;;;;;;102.97;61.90;;;;;9.00;102011.00;;;;10445362;28;20810;-75
2021/03/03 22:03:34;;;;;;;105.03;62.33;;;;;9.00;102001.00;;;;10470685;28;20200;-75
2021/03/03 22:08:36;;;;;;;106.63;65.13;;;;;8.90;101989.00;;;;10430148;28;20198;-75
2021/03/03 22:13:37;;;;;;;121.17;65.73;;;;;8.70;101990.00;;;;10445213;28;20201;-75
2021/03/03 22:18:48;;;;;;;112.40;65.03;;;;;8.60;101988.00;;;;10440130;28;20210;-75
2021/03/03 22:23:51;;;;;;;130.27;67.67;;;;;8.50;101973.00;;;;10447916;28;20280;-75
2021/03/03 22:28:52;;;;;;;114.80;65.70;;;;;8.30;101976.00;;;;10446445;28;20606;-75
2021/03/03 22:33:53;;;;;;;123.23;66.13;;;;;8.20;101977.00;;;;10471478;28;20651;-75
2021/03/03 22:38:55;;;;;;;117.93;67.07;;;;;8.00;101976.00;;;;10433507;28;20259;-75
2021/03/03 22:43:57;;;;;;;122.33;68.50;;;;;7.90;101960.00;;;;10468446;28;20668;-75
2021/03/03 22:49:08;;;;;;;132.87;69.97;;;;;7.90;101954.00;;;;10447675;28;20197;-75
2021/03/03 22:54:11;;;;;;;134.13;71.03;;;;;7.80;101961.00;;;;10446496;28;20247;-75
2021/03/03 22:59:13;;;;;;;137.37;74.30;;;;;7.70;101949.00;;;;10462884;28;20267;-75
2021/03/03 23:04:16;;;;;;;132.03;71.20;;;;;7.60;101952.00;;;;10446526;28;20182;-75
2021/03/03 23:09:18;;;;;;;133.33;68.60;;;;;7.50;101955.00;;;;10445968;28;20664;-75
2021/03/03 23:14:20;;;;;;;142.83;71.63;;;;;7.30;101950.00;;;;10445890;28;20193;-75
2021/03/03 23:19:30;;;;;;;142.53;73.00;;;;;7.20;101933.00;;;;10479433;28;20240;-75
2021/03/03 23:24:36;;;;;;;144.60;74.23;;;;;7.10;101937.00;;;;10496577;28;20194;-75
2021/03/03 23:29:40;;;;;;;149.33;74.80;;;;;7.10;101927.00;;;;10462822;28;20185;-75
2021/03/03 23:34:41;;;;;;;169.40;77.53;;;;;7.00;101938.00;;;;10462087;28;20201;-75
2021/03/03 23:39:42;;;;;;;164.60;77.30;;;;;7.00;101935.00;;;;10461591;28;20214;-75
2021/03/03 23:44:44;;;;;;;178.87;78.83;;;;;6.90;101927.00;;;;10451580;28;20198;-75
2021/03/03 23:49:55;;;;;;;193.97;79.07;;;;;6.90;101915.00;;;;10487865;28;20200;-76
2021/03/03 23:54:57;;;;;;;229.43;84.17;;;;;6.90;101906.00;;;;10436626;28;20243;-76
2021/03/03 23:59:58;;;;;;;243.53;88.13;;;;;6.90;101906.00;;;;10486570;28;20213;-76
